GLD166 SWMW-SBMN
Flight info
| Callsign | GLD166 |
|---|---|
| Flight time | 1h 0m |
| Altitude | 4500 |
| Route | 0311S05830W 0311S05925W 0312S05938W N0150A014 REA |
| Aircraft | C182/M-SDFGIRY/S |
Departure
| Time | 2026-05-04 17:51 |
|---|---|
| Airport | Maués Airport (SWMW) |
Arrival
| Time | 2026-05-04 18:52 |
|---|---|
| Airport | Ponta Pelada Airport / Manaus Air Base (SBMN) |
| Time | Latitude | Longitude | Altitude | Speed | Heading |
|---|---|---|---|---|---|
| 2026-05-04 17:48 | -3.36810 | -57.72503 | 62 ft | 0 kts | 249° |
| 2026-05-04 17:49 | -3.36817 | -57.72511 | 64 ft | 7 kts | 218° |
| 2026-05-04 17:49 | -3.36949 | -57.72503 | 64 ft | 28 kts | 172° |
| 2026-05-04 17:49 | -3.37190 | -57.72477 | 64 ft | 41 kts | 173° |
| 2026-05-04 17:50 | -3.37510 | -57.72437 | 63 ft | 42 kts | 173° |
| 2026-05-04 17:50 | -3.37676 | -57.72420 | 64 ft | 11 kts | 257° |
| 2026-05-04 17:50 | -3.37616 | -57.72430 | 62 ft | 21 kts | 351° |
| 2026-05-04 17:50 | -3.37294 | -57.72468 | 63 ft | 70 kts | 354° |
| 2026-05-04 17:51 | -3.36769 | -57.72557 | 281 ft | 79 kts | 349° |
| 2026-05-04 17:51 | -3.36248 | -57.72663 | 563 ft | 84 kts | 350° |
| 2026-05-04 17:51 | -3.35806 | -57.73075 | 834 ft | 91 kts | 294° |
| 2026-05-04 17:51 | -3.35546 | -57.73711 | 1027 ft | 112 kts | 296° |
| 2026-05-04 17:52 | -3.35199 | -57.74491 | 1153 ft | 130 kts | 296° |
| 2026-05-04 17:52 | -3.34821 | -57.75350 | 1280 ft | 142 kts | 296° |
| 2026-05-04 17:52 | -3.34411 | -57.76286 | 1407 ft | 148 kts | 296° |
| 2026-05-04 17:52 | -3.34000 | -57.77227 | 1515 ft | 151 kts | 294° |
| 2026-05-04 17:53 | -3.33776 | -57.78264 | 1607 ft | 154 kts | 279° |
| 2026-05-04 17:53 | -3.33634 | -57.79322 | 1708 ft | 153 kts | 279° |
| 2026-05-04 17:53 | -3.33484 | -57.80376 | 1805 ft | 153 kts | 279° |
| 2026-05-04 17:53 | -3.33340 | -57.81433 | 1906 ft | 153 kts | 279° |
| 2026-05-04 17:54 | -3.33197 | -57.82491 | 2004 ft | 154 kts | 281° |
| 2026-05-04 17:54 | -3.33057 | -57.83548 | 2097 ft | 153 kts | 279° |
| 2026-05-04 17:54 | -3.32915 | -57.84607 | 2196 ft | 153 kts | 280° |
| 2026-05-04 17:54 | -3.32774 | -57.85666 | 2296 ft | 154 kts | 279° |
| 2026-05-04 17:55 | -3.32631 | -57.86728 | 2396 ft | 155 kts | 279° |
| 2026-05-04 17:55 | -3.32488 | -57.87792 | 2483 ft | 154 kts | 279° |
| 2026-05-04 17:55 | -3.32342 | -57.88852 | 2585 ft | 154 kts | 279° |
| 2026-05-04 17:55 | -3.32197 | -57.89900 | 2684 ft | 154 kts | 279° |
| 2026-05-04 17:56 | -3.32013 | -57.90955 | 2781 ft | 154 kts | 285° |
| 2026-05-04 17:56 | -3.31758 | -57.91995 | 2877 ft | 154 kts | 285° |
| 2026-05-04 17:56 | -3.31505 | -57.93030 | 2975 ft | 153 kts | 286° |
| 2026-05-04 17:56 | -3.31258 | -57.94069 | 3070 ft | 154 kts | 285° |
| 2026-05-04 17:57 | -3.31011 | -57.95106 | 3171 ft | 154 kts | 285° |
| 2026-05-04 17:57 | -3.30764 | -57.96145 | 3260 ft | 153 kts | 285° |
| 2026-05-04 17:57 | -3.30521 | -57.97181 | 3358 ft | 153 kts | 285° |
| 2026-05-04 17:57 | -3.30278 | -57.98216 | 3450 ft | 152 kts | 285° |
| 2026-05-04 17:58 | -3.30037 | -57.99243 | 3546 ft | 151 kts | 285° |
| 2026-05-04 17:58 | -3.29795 | -58.00277 | 3648 ft | 153 kts | 285° |
| 2026-05-04 17:58 | -3.29547 | -58.01315 | 3737 ft | 153 kts | 285° |
| 2026-05-04 17:58 | -3.29302 | -58.02336 | 3836 ft | 152 kts | 285° |
| 2026-05-04 17:59 | -3.29062 | -58.03373 | 3930 ft | 152 kts | 285° |
| 2026-05-04 17:59 | -3.28821 | -58.04403 | 4028 ft | 152 kts | 285° |
| 2026-05-04 17:59 | -3.28346 | -58.06467 | 4219 ft | 152 kts | 285° |
| 2026-05-04 18:00 | -3.28189 | -58.07151 | 4286 ft | 152 kts | 285° |
| 2026-05-04 18:00 | -3.27879 | -58.08522 | 4415 ft | 153 kts | 285° |
| 2026-05-04 18:00 | -3.27645 | -58.09559 | 4513 ft | 153 kts | 285° |
| 2026-05-04 18:00 | -3.27486 | -58.10262 | 4583 ft | 153 kts | 285° |
| 2026-05-04 18:01 | -3.27255 | -58.11291 | 4680 ft | 154 kts | 285° |
| 2026-05-04 18:01 | -3.26935 | -58.12713 | 4664 ft | 165 kts | 285° |
| 2026-05-04 18:01 | -3.26760 | -58.13480 | 4492 ft | 175 kts | 285° |
| 2026-05-04 18:02 | -3.26227 | -58.15806 | 4483 ft | 169 kts | 285° |
| 2026-05-04 18:02 | -3.25973 | -58.16947 | 4485 ft | 167 kts | 285° |
| 2026-05-04 18:02 | -3.25717 | -58.18078 | 4482 ft | 167 kts | 285° |
| 2026-05-04 18:02 | -3.25463 | -58.19210 | 4482 ft | 167 kts | 285° |
| 2026-05-04 18:03 | -3.25209 | -58.20340 | 4477 ft | 166 kts | 284° |
| 2026-05-04 18:03 | -3.24952 | -58.21465 | 4481 ft | 166 kts | 285° |
| 2026-05-04 18:03 | -3.24698 | -58.22593 | 4473 ft | 166 kts | 285° |
| 2026-05-04 18:03 | -3.24446 | -58.23718 | 4474 ft | 165 kts | 284° |
| 2026-05-04 18:04 | -3.24192 | -58.24837 | 4474 ft | 164 kts | 285° |
| 2026-05-04 18:04 | -3.23943 | -58.25949 | 4471 ft | 163 kts | 285° |
| 2026-05-04 18:04 | -3.23450 | -58.28152 | 4472 ft | 163 kts | 284° |
| 2026-05-04 18:05 | -3.23200 | -58.29260 | 4476 ft | 164 kts | 284° |
| 2026-05-04 18:05 | -3.22952 | -58.30372 | 4476 ft | 164 kts | 284° |
| 2026-05-04 18:05 | -3.22701 | -58.31485 | 4475 ft | 164 kts | 284° |
| 2026-05-04 18:05 | -3.22451 | -58.32595 | 4475 ft | 163 kts | 284° |
| 2026-05-04 18:06 | -3.21960 | -58.34811 | 4470 ft | 163 kts | 284° |
| 2026-05-04 18:06 | -3.21715 | -58.35917 | 4474 ft | 163 kts | 284° |
| 2026-05-04 18:06 | -3.21474 | -58.37028 | 4476 ft | 163 kts | 284° |
| 2026-05-04 18:07 | -3.21228 | -58.38138 | 4476 ft | 164 kts | 284° |
| 2026-05-04 18:07 | -3.20984 | -58.39251 | 4472 ft | 164 kts | 284° |
| 2026-05-04 18:07 | -3.20739 | -58.40365 | 4476 ft | 164 kts | 284° |
| 2026-05-04 18:07 | -3.20496 | -58.41481 | 4471 ft | 165 kts | 284° |
| 2026-05-04 18:08 | -3.20252 | -58.42599 | 4479 ft | 164 kts | 284° |
| 2026-05-04 18:08 | -3.20011 | -58.43721 | 4480 ft | 165 kts | 284° |
| 2026-05-04 18:08 | -3.19770 | -58.44829 | 4473 ft | 165 kts | 284° |
| 2026-05-04 18:08 | -3.19529 | -58.45946 | 4474 ft | 164 kts | 284° |
| 2026-05-04 18:09 | -3.19038 | -58.48176 | 4474 ft | 164 kts | 284° |
| 2026-05-04 18:09 | -3.18549 | -58.50405 | 4473 ft | 164 kts | 284° |
| 2026-05-04 18:10 | -3.18301 | -58.51519 | 4474 ft | 164 kts | 284° |
| 2026-05-04 18:10 | -3.18055 | -58.52635 | 4475 ft | 164 kts | 284° |
| 2026-05-04 18:10 | -3.17810 | -58.53747 | 4476 ft | 164 kts | 284° |
| 2026-05-04 18:10 | -3.17565 | -58.54861 | 4475 ft | 164 kts | 284° |
| 2026-05-04 18:11 | -3.17319 | -58.55973 | 4473 ft | 163 kts | 284° |
| 2026-05-04 18:11 | -3.17078 | -58.57071 | 4477 ft | 164 kts | 284° |
| 2026-05-04 18:11 | -3.16829 | -58.58192 | 4478 ft | 165 kts | 284° |
| 2026-05-04 18:11 | -3.16580 | -58.59320 | 4483 ft | 166 kts | 284° |
| 2026-05-04 18:12 | -3.16331 | -58.60452 | 4482 ft | 167 kts | 284° |
| 2026-05-04 18:12 | -3.16081 | -58.61584 | 4480 ft | 166 kts | 284° |
| 2026-05-04 18:12 | -3.15835 | -58.62714 | 4478 ft | 166 kts | 283° |
| 2026-05-04 18:12 | -3.15586 | -58.63845 | 4480 ft | 166 kts | 284° |
| 2026-05-04 18:13 | -3.15341 | -58.64976 | 4479 ft | 166 kts | 284° |
| 2026-05-04 18:13 | -3.15094 | -58.66106 | 4476 ft | 166 kts | 284° |
| 2026-05-04 18:13 | -3.14600 | -58.68364 | 4474 ft | 166 kts | 284° |
| 2026-05-04 18:14 | -3.14516 | -58.68747 | 4478 ft | 166 kts | 284° |
| 2026-05-04 18:14 | -3.14103 | -58.70631 | 4479 ft | 166 kts | 284° |
| 2026-05-04 18:14 | -3.13858 | -58.71762 | 4478 ft | 166 kts | 283° |
| 2026-05-04 18:15 | -3.13376 | -58.74006 | 4477 ft | 166 kts | 283° |
| 2026-05-04 18:15 | -3.12890 | -58.76260 | 4479 ft | 166 kts | 283° |
| 2026-05-04 18:15 | -3.12644 | -58.77389 | 4481 ft | 166 kts | 284° |
| 2026-05-04 18:16 | -3.12403 | -58.78516 | 4479 ft | 166 kts | 283° |
| 2026-05-04 18:16 | -3.12162 | -58.79642 | 4476 ft | 166 kts | 283° |
| 2026-05-04 18:16 | -3.11920 | -58.80767 | 4481 ft | 165 kts | 283° |
| 2026-05-04 18:17 | -3.11441 | -58.83016 | 4479 ft | 164 kts | 283° |
| 2026-05-04 18:17 | -3.11200 | -58.84136 | 4479 ft | 165 kts | 283° |
| 2026-05-04 18:17 | -3.10728 | -58.86375 | 4478 ft | 165 kts | 283° |
| 2026-05-04 18:18 | -3.10489 | -58.87501 | 4480 ft | 166 kts | 283° |
| 2026-05-04 18:18 | -3.10250 | -58.88632 | 4481 ft | 166 kts | 283° |
| 2026-05-04 18:18 | -3.10010 | -58.89767 | 4482 ft | 167 kts | 283° |
| 2026-05-04 18:18 | -3.09809 | -58.90909 | 4475 ft | 167 kts | 274° |
| 2026-05-04 18:19 | -3.09858 | -58.93239 | 4472 ft | 167 kts | 269° |
| 2026-05-04 18:19 | -3.09885 | -58.94404 | 4473 ft | 167 kts | 269° |
| 2026-05-04 18:19 | -3.09893 | -58.94782 | 4474 ft | 167 kts | 269° |
| 2026-05-04 18:20 | -3.09938 | -58.96730 | 4473 ft | 167 kts | 269° |
| 2026-05-04 18:20 | -3.09967 | -58.97892 | 4476 ft | 167 kts | 269° |
| 2026-05-04 18:20 | -3.09997 | -58.99039 | 4473 ft | 167 kts | 269° |
| 2026-05-04 18:20 | -3.10029 | -59.00193 | 4475 ft | 165 kts | 269° |
| 2026-05-04 18:21 | -3.10060 | -59.01348 | 4472 ft | 166 kts | 269° |
| 2026-05-04 18:21 | -3.10090 | -59.02501 | 4474 ft | 166 kts | 269° |
| 2026-05-04 18:21 | -3.10125 | -59.03655 | 4472 ft | 166 kts | 269° |
| 2026-05-04 18:21 | -3.10160 | -59.04811 | 4476 ft | 166 kts | 269° |
| 2026-05-04 18:22 | -3.10192 | -59.05966 | 4475 ft | 166 kts | 269° |
| 2026-05-04 18:22 | -3.10227 | -59.07119 | 4473 ft | 166 kts | 269° |
| 2026-05-04 18:22 | -3.10268 | -59.08273 | 4474 ft | 166 kts | 269° |
| 2026-05-04 18:22 | -3.10307 | -59.09429 | 4477 ft | 167 kts | 269° |
| 2026-05-04 18:23 | -3.10346 | -59.10590 | 4475 ft | 167 kts | 269° |
| 2026-05-04 18:23 | -3.10388 | -59.11750 | 4473 ft | 167 kts | 269° |
| 2026-05-04 18:23 | -3.10430 | -59.12898 | 4475 ft | 167 kts | 269° |
| 2026-05-04 18:23 | -3.10461 | -59.13684 | 4476 ft | 167 kts | 269° |
| 2026-05-04 18:24 | -3.10522 | -59.15227 | 4474 ft | 167 kts | 269° |
| 2026-05-04 18:24 | -3.10570 | -59.16389 | 4474 ft | 167 kts | 269° |
| 2026-05-04 18:24 | -3.10614 | -59.17546 | 4475 ft | 166 kts | 269° |
| 2026-05-04 18:24 | -3.10660 | -59.18702 | 4474 ft | 167 kts | 268° |
| 2026-05-04 18:25 | -3.10702 | -59.19860 | 4476 ft | 166 kts | 269° |
| 2026-05-04 18:25 | -3.10748 | -59.21018 | 4477 ft | 166 kts | 269° |
| 2026-05-04 18:25 | -3.10794 | -59.22171 | 4476 ft | 166 kts | 268° |
| 2026-05-04 18:25 | -3.10843 | -59.23326 | 4476 ft | 166 kts | 269° |
| 2026-05-04 18:26 | -3.10893 | -59.24482 | 4478 ft | 167 kts | 268° |
| 2026-05-04 18:26 | -3.10942 | -59.25644 | 4474 ft | 167 kts | 269° |
| 2026-05-04 18:26 | -3.10997 | -59.26805 | 4474 ft | 167 kts | 268° |
| 2026-05-04 18:26 | -3.11053 | -59.27965 | 4475 ft | 167 kts | 269° |
| 2026-05-04 18:27 | -3.11110 | -59.29123 | 4478 ft | 167 kts | 268° |
| 2026-05-04 18:27 | -3.11169 | -59.30282 | 4476 ft | 167 kts | 268° |
| 2026-05-04 18:27 | -3.11228 | -59.31440 | 4476 ft | 167 kts | 268° |
| 2026-05-04 18:27 | -3.11288 | -59.32600 | 4475 ft | 167 kts | 268° |
| 2026-05-04 18:28 | -3.11348 | -59.33746 | 4475 ft | 167 kts | 268° |
| 2026-05-04 18:28 | -3.11408 | -59.34838 | 4424 ft | 142 kts | 268° |
| 2026-05-04 18:28 | -3.11677 | -59.35728 | 4170 ft | 130 kts | 242° |
| 2026-05-04 18:28 | -3.12091 | -59.36496 | 3953 ft | 122 kts | 243° |
| 2026-05-04 18:29 | -3.12474 | -59.37237 | 3742 ft | 118 kts | 243° |
| 2026-05-04 18:29 | -3.12843 | -59.37947 | 3534 ft | 113 kts | 244° |
| 2026-05-04 18:29 | -3.13212 | -59.38629 | 3330 ft | 109 kts | 242° |
| 2026-05-04 18:29 | -3.13565 | -59.39303 | 3130 ft | 110 kts | 244° |
| 2026-05-04 18:30 | -3.14294 | -59.40659 | 2735 ft | 110 kts | 243° |
| 2026-05-04 18:30 | -3.14652 | -59.41316 | 2547 ft | 109 kts | 243° |
| 2026-05-04 18:30 | -3.15000 | -59.41964 | 2430 ft | 102 kts | 243° |
| 2026-05-04 18:31 | -3.15338 | -59.42589 | 2431 ft | 112 kts | 243° |
| 2026-05-04 18:31 | -3.15743 | -59.43335 | 2469 ft | 130 kts | 243° |
| 2026-05-04 18:31 | -3.16191 | -59.44171 | 2502 ft | 141 kts | 243° |
| 2026-05-04 18:31 | -3.16666 | -59.45055 | 2527 ft | 147 kts | 242° |
| 2026-05-04 18:32 | -3.17148 | -59.45964 | 2530 ft | 149 kts | 242° |
| 2026-05-04 18:32 | -3.17627 | -59.46886 | 2547 ft | 149 kts | 243° |
| 2026-05-04 18:32 | -3.18114 | -59.47808 | 2547 ft | 150 kts | 243° |
| 2026-05-04 18:32 | -3.18600 | -59.48725 | 2549 ft | 149 kts | 243° |
| 2026-05-04 18:33 | -3.19082 | -59.49638 | 2550 ft | 148 kts | 243° |
| 2026-05-04 18:33 | -3.19562 | -59.50552 | 2550 ft | 148 kts | 244° |
| 2026-05-04 18:33 | -3.19989 | -59.51489 | 2546 ft | 149 kts | 247° |
| 2026-05-04 18:33 | -3.20433 | -59.52470 | 2436 ft | 159 kts | 246° |
| 2026-05-04 18:34 | -3.20893 | -59.53501 | 2299 ft | 165 kts | 247° |
| 2026-05-04 18:34 | -3.21370 | -59.54563 | 2164 ft | 169 kts | 246° |
| 2026-05-04 18:34 | -3.21585 | -59.55697 | 1984 ft | 172 kts | 277° |
| 2026-05-04 18:34 | -3.21370 | -59.56866 | 1796 ft | 170 kts | 283° |
| 2026-05-04 18:35 | -3.21161 | -59.57988 | 1777 ft | 158 kts | 282° |
| 2026-05-04 18:35 | -3.20967 | -59.59043 | 1765 ft | 151 kts | 283° |
| 2026-05-04 18:35 | -3.20781 | -59.60064 | 1779 ft | 148 kts | 282° |
| 2026-05-04 18:35 | -3.20343 | -59.61004 | 1730 ft | 153 kts | 303° |
| 2026-05-04 18:36 | -3.19785 | -59.61956 | 1637 ft | 162 kts | 302° |
| 2026-05-04 18:36 | -3.19217 | -59.62943 | 1633 ft | 163 kts | 302° |
| 2026-05-04 18:36 | -3.18655 | -59.63910 | 1660 ft | 162 kts | 302° |
| 2026-05-04 18:36 | -3.18086 | -59.64834 | 1641 ft | 151 kts | 302° |
| 2026-05-04 18:37 | -3.17490 | -59.65676 | 1637 ft | 146 kts | 307° |
| 2026-05-04 18:37 | -3.16848 | -59.66455 | 1633 ft | 144 kts | 309° |
| 2026-05-04 18:37 | -3.16206 | -59.67221 | 1630 ft | 143 kts | 309° |
| 2026-05-04 18:37 | -3.15569 | -59.67984 | 1629 ft | 142 kts | 309° |
| 2026-05-04 18:38 | -3.14935 | -59.68742 | 1628 ft | 142 kts | 309° |
| 2026-05-04 18:38 | -3.14301 | -59.69501 | 1628 ft | 142 kts | 309° |
| 2026-05-04 18:38 | -3.13668 | -59.70259 | 1608 ft | 143 kts | 311° |
| 2026-05-04 18:38 | -3.13036 | -59.71081 | 1625 ft | 154 kts | 309° |
| 2026-05-04 18:39 | -3.12399 | -59.71948 | 1626 ft | 158 kts | 309° |
| 2026-05-04 18:39 | -3.11744 | -59.72833 | 1619 ft | 157 kts | 309° |
| 2026-05-04 18:39 | -3.11088 | -59.73689 | 1638 ft | 151 kts | 308° |
| 2026-05-04 18:39 | -3.10382 | -59.74433 | 1620 ft | 147 kts | 316° |
| 2026-05-04 18:40 | -3.09634 | -59.75134 | 1569 ft | 148 kts | 316° |
| 2026-05-04 18:40 | -3.08884 | -59.75841 | 1519 ft | 148 kts | 316° |
| 2026-05-04 18:40 | -3.08137 | -59.76546 | 1469 ft | 147 kts | 316° |
| 2026-05-04 18:40 | -3.07402 | -59.77240 | 1457 ft | 145 kts | 316° |
| 2026-05-04 18:41 | -3.06761 | -59.78005 | 1449 ft | 143 kts | 302° |
| 2026-05-04 18:41 | -3.06374 | -59.78915 | 1442 ft | 142 kts | 287° |
| 2026-05-04 18:41 | -3.06083 | -59.79862 | 1442 ft | 142 kts | 287° |
| 2026-05-04 18:41 | -3.06030 | -59.80838 | 1420 ft | 142 kts | 263° |
| 2026-05-04 18:42 | -3.06288 | -59.81786 | 1415 ft | 141 kts | 250° |
| 2026-05-04 18:42 | -3.06695 | -59.82682 | 1415 ft | 142 kts | 244° |
| 2026-05-04 18:42 | -3.07119 | -59.83573 | 1416 ft | 142 kts | 245° |
| 2026-05-04 18:42 | -3.07538 | -59.84454 | 1416 ft | 142 kts | 245° |
| 2026-05-04 18:43 | -3.07962 | -59.85347 | 1416 ft | 142 kts | 245° |
| 2026-05-04 18:43 | -3.08388 | -59.86240 | 1416 ft | 142 kts | 245° |
| 2026-05-04 18:43 | -3.08822 | -59.87119 | 1480 ft | 137 kts | 239° |
| 2026-05-04 18:43 | -3.09466 | -59.87757 | 1712 ft | 125 kts | 215° |
| 2026-05-04 18:44 | -3.10210 | -59.88200 | 1831 ft | 128 kts | 212° |
| 2026-05-04 18:44 | -3.10460 | -59.88350 | 1830 ft | 131 kts | 212° |
| 2026-05-04 18:44 | -3.11767 | -59.89222 | 1834 ft | 139 kts | 220° |
| 2026-05-04 18:44 | -3.12518 | -59.89836 | 1838 ft | 140 kts | 220° |
| 2026-05-04 18:45 | -3.13242 | -59.90494 | 1840 ft | 141 kts | 224° |
| 2026-05-04 18:45 | -3.13923 | -59.91199 | 1840 ft | 141 kts | 227° |
| 2026-05-04 18:45 | -3.14592 | -59.91920 | 1841 ft | 141 kts | 227° |
| 2026-05-04 18:45 | -3.15263 | -59.92642 | 1842 ft | 141 kts | 227° |
| 2026-05-04 18:46 | -3.15936 | -59.93364 | 1843 ft | 142 kts | 227° |
| 2026-05-04 18:46 | -3.16608 | -59.94085 | 1843 ft | 142 kts | 227° |
| 2026-05-04 18:46 | -3.17269 | -59.94818 | 1843 ft | 142 kts | 229° |
| 2026-05-04 18:46 | -3.17909 | -59.95555 | 1843 ft | 142 kts | 229° |
| 2026-05-04 18:47 | -3.18516 | -59.96252 | 1825 ft | 121 kts | 229° |
| 2026-05-04 18:47 | -3.18975 | -59.96810 | 1780 ft | 89 kts | 233° |
| 2026-05-04 18:47 | -3.19220 | -59.97356 | 1746 ft | 91 kts | 263° |
| 2026-05-04 18:47 | -3.19229 | -59.98013 | 1693 ft | 99 kts | 280° |
| 2026-05-04 18:48 | -3.19001 | -59.98649 | 1620 ft | 96 kts | 295° |
| 2026-05-04 18:48 | -3.18676 | -59.99230 | 1550 ft | 94 kts | 298° |
| 2026-05-04 18:48 | -3.18364 | -59.99798 | 1486 ft | 91 kts | 298° |
| 2026-05-04 18:48 | -3.18071 | -60.00326 | 1432 ft | 86 kts | 300° |
| 2026-05-04 18:49 | -3.17726 | -60.00836 | 1382 ft | 90 kts | 307° |
| 2026-05-04 18:49 | -3.17449 | -60.01151 | 1349 ft | 92 kts | 311° |
| 2026-05-04 18:49 | -3.17024 | -60.01634 | 1299 ft | 93 kts | 311° |
| 2026-05-04 18:49 | -3.16503 | -60.02210 | 1195 ft | 80 kts | 311° |
| 2026-05-04 18:50 | -3.16228 | -60.02465 | 1123 ft | 82 kts | 330° |
| 2026-05-04 18:50 | -3.15667 | -60.02065 | 927 ft | 88 kts | 70° |
| 2026-05-04 18:50 | -3.15525 | -60.01692 | 831 ft | 87 kts | 66° |
| 2026-05-04 18:50 | -3.15277 | -60.01136 | 628 ft | 88 kts | 65° |
| 2026-05-04 18:51 | -3.15078 | -60.00575 | 425 ft | 84 kts | 73° |
| 2026-05-04 18:51 | -3.14948 | -60.00019 | 334 ft | 80 kts | 76° |
| 2026-05-04 18:51 | -3.14821 | -59.99504 | 271 ft | 72 kts | 76° |
| 2026-05-04 18:51 | -3.14725 | -59.99041 | 257 ft | 64 kts | 73° |
| 2026-05-04 18:52 | -3.14611 | -59.98669 | 255 ft | 35 kts | 68° |
| 2026-05-04 18:52 | -3.14575 | -59.98644 | 255 ft | 0 kts | 331° |
| 2026-05-04 18:52 | -3.14560 | -59.98647 | 255 ft | 6 kts | 0° |
| 2026-05-04 18:53 | -3.14534 | -59.98645 | 255 ft | 0 kts | 198° |